createdAt,value
2023-02-26T00:01:51.454Z,6.18
2023-02-26T00:04:20.967Z,6.17
2023-02-26T00:06:56.750Z,6.16
2023-02-26T00:09:27.338Z,6.15
2023-02-26T00:11:56.329Z,6.13
2023-02-26T00:14:31.364Z,6.13
2023-02-26T00:17:38.553Z,6.12
2023-02-26T00:20:12.319Z,6.11
2023-02-26T00:22:42.986Z,6.09
2023-02-26T00:25:12.496Z,6.07
2023-02-26T00:27:41.754Z,6.06
2023-02-26T00:30:11.098Z,6.03
2023-02-26T00:32:42.258Z,6.01
2023-02-26T00:35:13.719Z,5.99
2023-02-26T00:38:06.234Z,5.98
2023-02-26T00:40:51.098Z,5.95
2023-02-26T00:43:23.169Z,5.91
2023-02-26T00:45:56.386Z,5.89
2023-02-26T00:48:54.749Z,5.86
2023-02-26T00:51:33.257Z,5.83
2023-02-26T00:54:11.466Z,5.82
2023-02-26T00:56:40.153Z,5.80
2023-02-26T00:59:09.145Z,5.77
2023-02-26T01:01:38.184Z,5.74
2023-02-26T01:04:09.968Z,5.71
2023-02-26T01:06:50.558Z,5.68
2023-02-26T01:09:33.613Z,5.64
2023-02-26T01:12:06.112Z,5.62
2023-02-26T01:14:34.932Z,5.60
2023-02-26T01:17:24.740Z,5.59
2023-02-26T01:20:02.529Z,5.58
2023-02-26T01:22:34.524Z,5.56
2023-02-26T01:25:05.581Z,5.56
2023-02-26T01:27:38.209Z,5.55
2023-02-26T01:30:08.028Z,5.54
2023-02-26T01:32:55.347Z,5.52
2023-02-26T01:35:31.659Z,5.50
2023-02-26T01:38:04.185Z,5.49
2023-02-26T01:40:49.223Z,5.47
2023-02-26T01:43:22.550Z,5.46
2023-02-26T01:45:52.463Z,5.44
2023-02-26T01:48:53.715Z,5.42
2023-02-26T01:52:01.629Z,5.41
2023-02-26T01:54:34.504Z,5.41
2023-02-26T01:57:08.698Z,5.40
2023-02-26T01:59:42.846Z,5.39
2023-02-26T02:02:12.699Z,5.40
2023-02-26T02:04:42.207Z,5.38
2023-02-26T02:07:11.548Z,5.36
2023-02-26T02:09:40.149Z,5.33
2023-02-26T02:12:17.901Z,5.31
2023-02-26T02:14:55.628Z,5.29
2023-02-26T02:17:38.335Z,5.26
2023-02-26T02:20:34.670Z,5.24
2023-02-26T02:23:11.138Z,5.21
2023-02-26T02:26:00.920Z,5.18
2023-02-26T02:28:42.742Z,5.15
2023-02-26T02:31:32.693Z,5.13
2023-02-26T02:34:10.638Z,5.10
2023-02-26T02:36:59.354Z,5.09
2023-02-26T02:39:48.960Z,5.08
2023-02-26T02:42:32.371Z,5.06
2023-02-26T02:45:08.724Z,5.05
2023-02-26T02:47:40.070Z,5.04
2023-02-26T02:50:32.108Z,5.03
2023-02-26T02:53:10.095Z,5.00
2023-02-26T02:55:46.568Z,4.99
2023-02-26T02:58:17.792Z,4.96
2023-02-26T03:00:49.832Z,4.95
2023-02-26T03:03:33.528Z,4.92
2023-02-26T03:06:03.376Z,4.90
2023-02-26T03:08:41.633Z,4.89
2023-02-26T03:11:10.745Z,4.88
2023-02-26T03:13:40.983Z,4.87
2023-02-26T03:16:55.635Z,4.85
2023-02-26T03:19:30.572Z,4.83
2023-02-26T03:22:00.284Z,4.81
2023-02-26T03:24:57.412Z,4.80
2023-02-26T03:27:32.054Z,4.79
2023-02-26T03:30:12.515Z,4.78
2023-02-26T03:32:59.453Z,4.76
2023-02-26T03:35:40.389Z,4.76
2023-02-26T03:38:12.925Z,4.75
2023-02-26T03:40:48.335Z,4.76
2023-02-26T03:43:28.886Z,4.76
2023-02-26T03:46:02.252Z,4.76
2023-02-26T03:48:31.276Z,4.76
2023-02-26T03:51:06.876Z,4.76
2023-02-26T03:53:50.460Z,4.77
2023-02-26T03:56:37.758Z,4.76
2023-02-26T03:59:29.507Z,4.74
2023-02-26T04:02:20.129Z,4.72
2023-02-26T04:05:02.309Z,4.71
2023-02-26T04:07:30.954Z,4.70
2023-02-26T04:09:59.478Z,4.69
2023-02-26T04:12:28.896Z,4.67
2023-02-26T04:14:57.883Z,4.66
2023-02-26T04:17:27.086Z,4.65
2023-02-26T04:19:57.604Z,4.63
2023-02-26T04:22:26.296Z,4.63
2023-02-26T04:25:00.598Z,4.62
2023-02-26T04:27:29.900Z,4.61
2023-02-26T04:29:58.690Z,4.60
2023-02-26T04:32:27.399Z,4.59
2023-02-26T04:34:56.187Z,4.57
2023-02-26T04:37:26.502Z,4.56
2023-02-26T04:39:55.478Z,4.56
2023-02-26T04:42:25.388Z,4.56
2023-02-26T04:44:54.075Z,4.55
2023-02-26T04:47:22.660Z,4.57
2023-02-26T04:49:51.343Z,4.54
2023-02-26T04:52:21.374Z,4.54
2023-02-26T04:54:50.146Z,4.53
2023-02-26T04:57:19.048Z,4.50
2023-02-26T04:59:48.143Z,4.50
2023-02-26T05:02:16.717Z,4.48
2023-02-26T05:04:46.600Z,4.47
2023-02-26T05:07:15.072Z,4.45
2023-02-26T05:09:44.050Z,4.44
2023-02-26T05:12:13.610Z,4.43
2023-02-26T05:14:42.603Z,4.40
2023-02-26T05:17:11.708Z,4.37
2023-02-26T05:19:42.592Z,4.36
2023-02-26T05:22:14.238Z,4.36
2023-02-26T05:24:44.046Z,4.36
2023-02-26T05:27:12.814Z,4.37
2023-02-26T05:29:45.999Z,4.37
2023-02-26T05:32:15.664Z,4.38
2023-02-26T05:34:45.401Z,4.39
2023-02-26T05:37:14.190Z,4.41
2023-02-26T05:39:44.415Z,4.43
2023-02-26T05:42:13.008Z,4.44
2023-02-26T05:44:41.517Z,4.43
2023-02-26T05:47:09.956Z,4.42
2023-02-26T05:49:42.227Z,4.43
2023-02-26T05:52:10.710Z,4.42
2023-02-26T05:54:39.294Z,4.40
2023-02-26T05:57:09.937Z,4.38
2023-02-26T05:59:40.652Z,4.39
2023-02-26T06:02:10.547Z,4.38
2023-02-26T06:04:39.149Z,4.37
2023-02-26T06:07:11.012Z,4.36
2023-02-26T06:09:39.590Z,4.34
2023-02-26T06:12:11.952Z,4.31
2023-02-26T06:14:40.649Z,4.28
2023-02-26T06:17:09.334Z,4.26
2023-02-26T06:19:38.537Z,4.23
2023-02-26T06:22:07.130Z,4.20
2023-02-26T06:24:35.561Z,4.18
2023-02-26T06:27:04.128Z,4.18
2023-02-26T06:29:32.848Z,4.17
2023-02-26T06:32:01.357Z,4.16
2023-02-26T06:34:30.270Z,4.15
2023-02-26T06:36:58.748Z,4.15
2023-02-26T06:39:27.531Z,4.16
2023-02-26T06:41:56.106Z,4.17
2023-02-26T06:44:25.886Z,4.19
2023-02-26T06:46:57.402Z,4.22
2023-02-26T06:49:27.935Z,4.24
2023-02-26T06:51:57.140Z,4.26
2023-02-26T06:54:25.750Z,4.27
2023-02-26T06:56:57.997Z,4.28
2023-02-26T06:59:26.624Z,4.30
2023-02-26T07:01:55.788Z,4.32
2023-02-26T07:04:24.270Z,4.31
2023-02-26T07:06:53.014Z,4.30
2023-02-26T07:09:21.700Z,4.30
2023-02-26T07:11:51.892Z,4.30
2023-02-26T07:14:20.563Z,4.32
2023-02-26T07:16:51.340Z,4.32
2023-02-26T07:19:20.412Z,4.32
2023-02-26T07:21:49.301Z,4.31
2023-02-26T07:24:18.290Z,4.32
2023-02-26T07:26:46.882Z,4.32
2023-02-26T07:29:15.558Z,4.32
2023-02-26T07:31:44.486Z,4.33
2023-02-26T07:34:13.155Z,4.34
2023-02-26T07:36:43.086Z,4.35
2023-02-26T07:39:11.712Z,4.36
2023-02-26T07:41:41.340Z,4.38
2023-02-26T07:44:13.097Z,4.41
2023-02-26T07:46:43.829Z,4.44
2023-02-26T07:49:12.732Z,4.47
2023-02-26T07:51:45.973Z,4.50
2023-02-26T07:54:14.612Z,4.55
2023-02-26T07:56:45.448Z,4.60
2023-02-26T07:59:15.552Z,4.63
2023-02-26T08:01:44.232Z,4.68
2023-02-26T08:04:13.921Z,4.71
2023-02-26T08:06:42.431Z,4.75
2023-02-26T08:09:14.822Z,4.80
2023-02-26T08:11:43.688Z,4.84
2023-02-26T08:14:12.477Z,4.89
2023-02-26T08:16:41.278Z,4.93
2023-02-26T08:19:09.994Z,4.96
2023-02-26T08:21:38.846Z,4.99
2023-02-26T08:24:07.537Z,5.01
2023-02-26T08:26:37.391Z,5.04
2023-02-26T08:29:06.032Z,5.09
2023-02-26T08:31:35.770Z,5.16
2023-02-26T08:34:04.520Z,5.24
2023-02-26T08:36:33.110Z,5.30
2023-02-26T08:39:02.712Z,5.36
2023-02-26T08:41:32.756Z,5.38
2023-02-26T08:44:02.027Z,5.34
2023-02-26T08:46:31.381Z,5.33
2023-02-26T08:49:01.251Z,5.31
2023-02-26T08:51:31.260Z,5.31
2023-02-26T08:54:00.150Z,5.29
2023-02-26T08:56:28.945Z,5.25
2023-02-26T08:58:57.522Z,5.21
2023-02-26T09:01:26.621Z,5.18
2023-02-26T09:03:55.512Z,5.14
2023-02-26T09:06:24.358Z,5.13
2023-02-26T09:08:53.703Z,5.14
2023-02-26T09:11:22.438Z,5.17
2023-02-26T09:13:51.484Z,5.20
2023-02-26T09:16:20.411Z,5.21
2023-02-26T09:18:50.901Z,5.21
2023-02-26T09:21:19.432Z,5.20
2023-02-26T09:23:49.438Z,5.19
2023-02-26T09:26:18.395Z,5.17
2023-02-26T09:28:51.377Z,5.18
2023-02-26T09:31:20.010Z,5.19
2023-02-26T09:33:48.530Z,5.21
2023-02-26T09:36:17.004Z,5.24
2023-02-26T09:38:46.446Z,5.24
2023-02-26T09:41:21.470Z,5.18
2023-02-26T09:44:24.560Z,5.12
2023-02-26T09:46:55.496Z,5.11
2023-02-26T09:49:36.111Z,5.13
2023-02-26T09:52:28.840Z,5.16
2023-02-26T09:55:21.279Z,5.21
2023-02-26T09:57:50.044Z,5.27
2023-02-26T10:00:38.045Z,5.30
2023-02-26T10:03:28.470Z,5.32
2023-02-26T10:06:16.213Z,5.31
2023-02-26T10:09:12.824Z,5.35
2023-02-26T10:11:47.508Z,5.40
2023-02-26T10:14:37.706Z,5.40
2023-02-26T10:17:21.817Z,5.40
2023-02-26T10:19:54.538Z,5.43
2023-02-26T10:22:52.333Z,5.41
2023-02-26T10:25:59.327Z,5.42
2023-02-26T10:28:33.892Z,5.47
2023-02-26T10:31:24.020Z,5.51
2023-02-26T10:34:00.130Z,5.50
2023-02-26T10:36:31.103Z,5.44
2023-02-26T10:39:04.832Z,5.38
2023-02-26T10:41:34.872Z,5.34
2023-02-26T10:44:15.315Z,5.31
2023-02-26T10:46:54.465Z,5.27
2023-02-26T10:49:54.967Z,5.23
2023-02-26T10:52:25.960Z,5.19
2023-02-26T10:55:38.210Z,5.17
2023-02-26T10:58:14.553Z,5.16
2023-02-26T11:00:46.774Z,5.14
2023-02-26T11:03:20.016Z,5.14
2023-02-26T11:05:49.233Z,5.15
2023-02-26T11:08:32.237Z,5.15
2023-02-26T11:11:03.946Z,5.14
2023-02-26T11:13:35.908Z,5.11
2023-02-26T11:16:12.613Z,5.13
2023-02-26T11:18:44.948Z,5.15
2023-02-26T11:21:28.933Z,5.18
2023-02-26T11:24:05.372Z,5.20
2023-02-26T11:26:38.109Z,5.20
2023-02-26T11:29:06.749Z,5.22
2023-02-26T11:31:35.295Z,5.25
2023-02-26T11:34:05.177Z,5.27
2023-02-26T11:36:34.378Z,5.28
2023-02-26T11:39:25.186Z,5.31
2023-02-26T11:41:57.704Z,5.36
2023-02-26T11:44:38.658Z,5.39
2023-02-26T11:47:16.060Z,5.36
2023-02-26T11:49:47.944Z,5.38
2023-02-26T11:52:28.343Z,5.42
2023-02-26T11:55:04.492Z,5.45
2023-02-26T11:57:33.615Z,5.50
2023-02-26T12:00:22.078Z,5.57
2023-02-26T12:02:51.244Z,5.61
2023-02-26T12:05:20.559Z,5.64
2023-02-26T12:07:51.884Z,5.63
2023-02-26T12:10:38.442Z,5.63
2023-02-26T12:13:28.000Z,5.60
2023-02-26T12:16:25.364Z,5.54
2023-02-26T12:19:12.491Z,5.52
2023-02-26T12:22:15.484Z,5.51
2023-02-26T12:25:04.093Z,5.50
2023-02-26T12:27:55.648Z,5.49
2023-02-26T12:30:42.971Z,5.48
2023-02-26T12:33:34.582Z,5.46
2023-02-26T12:36:06.823Z,5.44
2023-02-26T12:38:46.110Z,5.43
2023-02-26T12:41:22.837Z,5.41
2023-02-26T12:43:55.371Z,5.43
2023-02-26T12:46:27.052Z,5.44
2023-02-26T12:49:23.487Z,5.43
2023-02-26T12:52:16.750Z,5.42
2023-02-26T12:55:01.568Z,5.39
2023-02-26T12:57:39.631Z,5.35
2023-02-26T13:00:13.147Z,5.35
2023-02-26T13:03:10.980Z,5.34
2023-02-26T13:05:45.239Z,5.31
2023-02-26T13:08:28.301Z,5.28
2023-02-26T13:11:27.880Z,5.27
2023-02-26T13:14:22.228Z,5.23
2023-02-26T13:16:52.730Z,5.21
2023-02-26T13:19:21.964Z,5.22
2023-02-26T13:22:06.395Z,5.22
2023-02-26T13:24:44.019Z,5.22
2023-02-26T13:27:12.753Z,5.22
2023-02-26T13:29:47.896Z,5.23
2023-02-26T13:32:21.903Z,5.23
2023-02-26T13:34:55.161Z,5.25
2023-02-26T13:37:43.153Z,5.25
2023-02-26T13:40:14.543Z,5.26
2023-02-26T13:42:51.268Z,5.27
2023-02-26T13:46:17.638Z,5.26
2023-02-26T13:48:52.416Z,5.26
2023-02-26T13:51:20.858Z,5.25
2023-02-26T13:53:53.348Z,5.25
2023-02-26T13:56:31.419Z,5.26
2023-02-26T13:59:05.371Z,5.25
2023-02-26T14:01:37.537Z,5.25
2023-02-26T14:04:22.780Z,5.24
2023-02-26T14:06:52.873Z,5.21
2023-02-26T14:09:22.052Z,5.19
2023-02-26T14:12:18.276Z,5.15
2023-02-26T14:15:13.242Z,5.09
2023-02-26T14:17:52.581Z,5.03
2023-02-26T14:20:26.933Z,4.98
2023-02-26T14:23:08.158Z,4.95
2023-02-26T14:25:49.885Z,4.94
2023-02-26T14:28:25.474Z,4.96
2023-02-26T14:31:06.994Z,4.95
2023-02-26T14:33:40.926Z,4.94
2023-02-26T14:36:16.885Z,4.93
2023-02-26T14:38:45.749Z,4.92
2023-02-26T14:41:27.708Z,4.90
2023-02-26T14:44:06.853Z,4.88
2023-02-26T14:46:35.390Z,4.87
2023-02-26T14:49:05.585Z,4.85
2023-02-26T14:52:04.508Z,4.82
2023-02-26T14:54:54.883Z,4.76
2023-02-26T14:57:57.187Z,4.72
2023-02-26T15:00:51.331Z,4.67
2023-02-26T15:03:40.891Z,4.63
2023-02-26T15:06:34.294Z,4.58
2023-02-26T15:09:31.977Z,4.54
2023-02-26T15:12:32.947Z,4.51
2023-02-26T15:15:17.460Z,4.46
2023-02-26T15:18:23.195Z,4.42
2023-02-26T15:21:10.964Z,4.41
2023-02-26T15:23:53.778Z,4.41
2023-02-26T15:26:28.317Z,4.40
2023-02-26T15:29:07.246Z,4.39
2023-02-26T15:31:43.911Z,4.38
2023-02-26T15:34:17.256Z,4.37
2023-02-26T15:36:47.384Z,4.36
2023-02-26T15:39:19.388Z,4.37
2023-02-26T15:41:48.679Z,4.36
2023-02-26T15:44:22.854Z,4.37
2023-02-26T15:47:02.581Z,4.38
2023-02-26T15:49:36.176Z,4.38
2023-02-26T15:52:07.479Z,4.39
2023-02-26T15:54:40.211Z,4.38
2023-02-26T15:57:11.057Z,4.35
2023-02-26T15:59:45.756Z,4.32
2023-02-26T16:02:26.893Z,4.28
2023-02-26T16:04:55.403Z,4.26
2023-02-26T16:07:24.269Z,4.25
2023-02-26T16:09:54.986Z,4.23
2023-02-26T16:12:40.745Z,4.23
2023-02-26T16:15:13.717Z,4.22
2023-02-26T16:17:48.343Z,4.23
2023-02-26T16:20:27.251Z,4.23
2023-02-26T16:23:00.220Z,4.24
2023-02-26T16:25:37.487Z,4.22
2023-02-26T16:28:12.965Z,4.19
2023-02-26T16:30:44.213Z,4.16
2023-02-26T16:33:15.152Z,4.12
2023-02-26T16:35:49.080Z,4.09
2023-02-26T16:38:23.978Z,4.08
2023-02-26T16:41:01.330Z,4.06
2023-02-26T16:43:45.723Z,4.05
2023-02-26T16:46:18.524Z,4.06
2023-02-26T16:48:54.742Z,4.06
2023-02-26T16:51:25.592Z,4.06
2023-02-26T16:53:58.453Z,4.07
2023-02-26T16:56:35.111Z,4.05
2023-02-26T16:59:23.189Z,4.04
2023-02-26T17:02:01.009Z,4.03
2023-02-26T17:04:32.161Z,4.02
2023-02-26T17:07:00.922Z,3.99
2023-02-26T17:09:29.613Z,3.95
2023-02-26T17:12:07.394Z,3.93
2023-02-26T17:14:40.843Z,3.93
2023-02-26T17:17:10.404Z,3.92
2023-02-26T17:19:38.958Z,3.90
2023-02-26T17:22:11.351Z,3.87
2023-02-26T17:24:41.199Z,3.86
2023-02-26T17:27:10.736Z,3.85
2023-02-26T17:29:43.697Z,3.84
2023-02-26T17:32:24.187Z,3.83
2023-02-26T17:34:55.593Z,3.82
2023-02-26T17:37:26.184Z,3.80
2023-02-26T17:39:54.609Z,3.78
2023-02-26T17:42:23.803Z,3.76
2023-02-26T17:44:53.014Z,3.74
2023-02-26T17:47:23.589Z,3.71
2023-02-26T17:49:52.840Z,3.68
2023-02-26T17:52:21.260Z,3.64
2023-02-26T17:54:49.628Z,3.61
2023-02-26T17:57:19.947Z,3.59
2023-02-26T17:59:49.570Z,3.57
2023-02-26T18:02:23.524Z,3.55
2023-02-26T18:04:52.313Z,3.54
2023-02-26T18:07:21.374Z,3.54
2023-02-26T18:09:49.837Z,3.55
2023-02-26T18:12:22.431Z,3.56
2023-02-26T18:14:51.802Z,3.57
2023-02-26T18:17:25.501Z,3.56
2023-02-26T18:19:54.730Z,3.55
2023-02-26T18:22:25.695Z,3.52
2023-02-26T18:25:14.488Z,3.48
2023-02-26T18:27:46.326Z,3.47
2023-02-26T18:30:23.135Z,3.46
2023-02-26T18:32:53.182Z,3.42
2023-02-26T18:35:26.372Z,3.39
2023-02-26T18:37:55.557Z,3.37
2023-02-26T18:40:26.056Z,3.35
2023-02-26T18:42:55.049Z,3.32
2023-02-26T18:45:23.688Z,3.31
2023-02-26T18:47:52.215Z,3.32
2023-02-26T18:50:24.608Z,3.33
2023-02-26T18:52:53.268Z,3.34
2023-02-26T18:55:22.545Z,3.35
2023-02-26T18:57:51.500Z,3.35
2023-02-26T19:00:21.603Z,3.33
2023-02-26T19:02:50.516Z,3.33
2023-02-26T19:05:23.453Z,3.33
2023-02-26T19:07:52.062Z,3.33
2023-02-26T19:10:20.787Z,3.34
2023-02-26T19:12:51.643Z,3.35
2023-02-26T19:15:20.046Z,3.35
2023-02-26T19:17:48.605Z,3.35
2023-02-26T19:20:17.280Z,3.35
2023-02-26T19:22:49.176Z,3.33
2023-02-26T19:25:24.219Z,3.33
2023-02-26T19:27:53.774Z,3.32
2023-02-26T19:30:26.260Z,3.31
2023-02-26T19:32:55.270Z,3.30
2023-02-26T19:35:27.246Z,3.30
2023-02-26T19:37:55.895Z,3.30
2023-02-26T19:40:24.830Z,3.29
2023-02-26T19:42:53.213Z,3.30
2023-02-26T19:45:21.729Z,3.30
2023-02-26T19:47:50.186Z,3.29
2023-02-26T19:50:19.591Z,3.26
2023-02-26T19:52:48.638Z,3.23
2023-02-26T19:55:17.173Z,3.23
2023-02-26T19:57:50.290Z,3.22
2023-02-26T20:00:19.148Z,3.21
2023-02-26T20:02:47.686Z,3.17
2023-02-26T20:05:18.135Z,3.16
2023-02-26T20:07:48.344Z,3.15
2023-02-26T20:10:18.254Z,3.13
2023-02-26T20:12:48.598Z,3.11
2023-02-26T20:15:17.139Z,3.08
2023-02-26T20:17:45.643Z,3.03
2023-02-26T20:20:18.994Z,3.01
2023-02-26T20:22:49.580Z,2.98
2023-02-26T20:25:19.479Z,2.97
2023-02-26T20:27:48.813Z,2.96
2023-02-26T20:30:17.790Z,2.95
2023-02-26T20:32:46.891Z,2.96
2023-02-26T20:35:15.766Z,2.97
2023-02-26T20:37:45.150Z,2.99
2023-02-26T20:40:15.602Z,3.02
2023-02-26T20:42:44.093Z,3.03
2023-02-26T20:45:15.799Z,3.05
2023-02-26T20:47:44.309Z,3.07
2023-02-26T20:50:13.334Z,3.09
2023-02-26T20:52:42.997Z,3.10
2023-02-26T20:55:11.814Z,3.10
2023-02-26T20:57:41.643Z,3.10
2023-02-26T21:00:11.706Z,3.09
2023-02-26T21:02:41.303Z,3.09
2023-02-26T21:05:10.744Z,3.10
2023-02-26T21:07:39.728Z,3.10
2023-02-26T21:10:12.735Z,3.11
2023-02-26T21:12:41.147Z,3.12
2023-02-26T21:15:10.950Z,3.12
2023-02-26T21:17:40.887Z,3.12
2023-02-26T21:20:18.333Z,3.12
2023-02-26T21:22:47.772Z,3.12
2023-02-26T21:25:16.769Z,3.13
2023-02-26T21:27:45.354Z,3.15
2023-02-26T21:30:14.010Z,3.16
2023-02-26T21:32:44.371Z,3.17
2023-02-26T21:35:16.232Z,3.17
2023-02-26T21:37:45.358Z,3.15
2023-02-26T21:40:14.980Z,3.13
2023-02-26T21:42:48.150Z,3.10
2023-02-26T21:45:16.792Z,3.08
2023-02-26T21:47:45.798Z,3.07
2023-02-26T21:50:14.363Z,3.04
2023-02-26T21:52:45.039Z,3.03
2023-02-26T21:55:13.807Z,3.02
2023-02-26T21:57:42.323Z,3.01
2023-02-26T22:00:11.813Z,2.99
2023-02-26T22:02:40.546Z,2.95
2023-02-26T22:05:10.334Z,2.91
2023-02-26T22:07:39.158Z,2.88
2023-02-26T22:10:08.293Z,2.85
2023-02-26T22:12:37.309Z,2.83
2023-02-26T22:15:06.628Z,2.82
2023-02-26T22:17:36.997Z,2.81
2023-02-26T22:20:10.048Z,2.79
2023-02-26T22:22:38.578Z,2.77
2023-02-26T22:25:07.771Z,2.74
2023-02-26T22:27:37.012Z,2.72
2023-02-26T22:30:09.884Z,2.69
2023-02-26T22:32:39.498Z,2.66
2023-02-26T22:35:08.706Z,2.65
2023-02-26T22:37:37.798Z,2.62
2023-02-26T22:40:07.556Z,2.59
2023-02-26T22:42:36.407Z,2.58
2023-02-26T22:45:05.750Z,2.57
2023-02-26T22:47:35.478Z,2.57
2023-02-26T22:50:04.576Z,2.57
2023-02-26T22:52:37.632Z,2.56
2023-02-26T22:55:07.143Z,2.58
2023-02-26T22:57:36.504Z,2.58
2023-02-26T23:00:08.783Z,2.56
2023-02-26T23:02:39.203Z,2.55
2023-02-26T23:05:09.420Z,2.52
2023-02-26T23:07:41.608Z,2.50
2023-02-26T23:10:13.720Z,2.46
2023-02-26T23:12:43.121Z,2.42
2023-02-26T23:15:11.893Z,2.40
2023-02-26T23:17:43.517Z,2.37
2023-02-26T23:20:14.116Z,2.36
2023-02-26T23:22:43.987Z,2.34
2023-02-26T23:25:13.430Z,2.33
2023-02-26T23:27:41.938Z,2.31
2023-02-26T23:30:11.047Z,2.28
2023-02-26T23:32:39.585Z,2.26
2023-02-26T23:35:08.310Z,2.24
2023-02-26T23:37:37.503Z,2.23
2023-02-26T23:40:07.938Z,2.24
2023-02-26T23:42:36.905Z,2.24
2023-02-26T23:45:05.624Z,2.24
2023-02-26T23:47:35.270Z,2.24
2023-02-26T23:50:07.703Z,2.23
2023-02-26T23:52:37.641Z,2.19
2023-02-26T23:55:06.853Z,2.15
2023-02-26T23:57:36.787Z,2.11
